sensor_id;sensor_type;location;lat;lon;timestamp;P1;durP1;ratioP1;P2;durP2;ratioP2
19944;SDS011;10134;50.952;6.930;2022-12-08T00:01:11;18.50;;;11.07;;
19944;SDS011;10134;50.952;6.930;2022-12-08T00:03:41;22.07;;;12.23;;
19944;SDS011;10134;50.952;6.930;2022-12-08T00:06:21;22.83;;;11.53;;
19944;SDS011;10134;50.952;6.930;2022-12-08T00:09:13;20.33;;;11.07;;
19944;SDS011;10134;50.952;6.930;2022-12-08T00:11:56;19.70;;;11.23;;
19944;SDS011;10134;50.952;6.930;2022-12-08T00:14:29;20.83;;;11.10;;
19944;SDS011;10134;50.952;6.930;2022-12-08T00:16:58;22.63;;;12.33;;
19944;SDS011;10134;50.952;6.930;2022-12-08T00:19:27;20.53;;;11.80;;
19944;SDS011;10134;50.952;6.930;2022-12-08T00:21:54;23.47;;;12.43;;
19944;SDS011;10134;50.952;6.930;2022-12-08T00:24:23;17.50;;;10.57;;
19944;SDS011;10134;50.952;6.930;2022-12-08T00:26:54;17.50;;;10.90;;
19944;SDS011;10134;50.952;6.930;2022-12-08T00:29:22;18.93;;;11.43;;
19944;SDS011;10134;50.952;6.930;2022-12-08T00:31:49;18.37;;;11.17;;
19944;SDS011;10134;50.952;6.930;2022-12-08T00:34:16;20.87;;;12.30;;
19944;SDS011;10134;50.952;6.930;2022-12-08T00:36:44;21.33;;;11.87;;
19944;SDS011;10134;50.952;6.930;2022-12-08T00:39:12;20.80;;;11.67;;
19944;SDS011;10134;50.952;6.930;2022-12-08T00:41:41;18.77;;;11.87;;
19944;SDS011;10134;50.952;6.930;2022-12-08T00:44:27;20.87;;;11.53;;
19944;SDS011;10134;50.952;6.930;2022-12-08T00:46:54;18.80;;;11.90;;
19944;SDS011;10134;50.952;6.930;2022-12-08T00:49:22;20.87;;;11.33;;
19944;SDS011;10134;50.952;6.930;2022-12-08T00:51:49;19.13;;;12.00;;
19944;SDS011;10134;50.952;6.930;2022-12-08T00:54:17;21.73;;;11.60;;
19944;SDS011;10134;50.952;6.930;2022-12-08T00:56:44;21.80;;;12.50;;
19944;SDS011;10134;50.952;6.930;2022-12-08T00:59:12;20.40;;;12.37;;
19944;SDS011;10134;50.952;6.930;2022-12-08T01:01:39;23.00;;;12.43;;
19944;SDS011;10134;50.952;6.930;2022-12-08T01:04:09;19.27;;;11.80;;
19944;SDS011;10134;50.952;6.930;2022-12-08T01:06:39;19.60;;;11.93;;
19944;SDS011;10134;50.952;6.930;2022-12-08T01:09:07;18.20;;;12.07;;
19944;SDS011;10134;50.952;6.930;2022-12-08T01:11:35;18.83;;;11.70;;
19944;SDS011;10134;50.952;6.930;2022-12-08T01:14:02;19.47;;;12.87;;
19944;SDS011;10134;50.952;6.930;2022-12-08T01:16:32;19.07;;;12.23;;
19944;SDS011;10134;50.952;6.930;2022-12-08T01:19:01;19.80;;;11.93;;
19944;SDS011;10134;50.952;6.930;2022-12-08T01:21:29;22.70;;;13.17;;
19944;SDS011;10134;50.952;6.930;2022-12-08T01:23:57;22.73;;;13.27;;
19944;SDS011;10134;50.952;6.930;2022-12-08T01:26:26;21.67;;;11.97;;
19944;SDS011;10134;50.952;6.930;2022-12-08T01:28:53;22.57;;;11.70;;
19944;SDS011;10134;50.952;6.930;2022-12-08T01:31:21;16.80;;;11.13;;
19944;SDS011;10134;50.952;6.930;2022-12-08T01:33:49;18.77;;;11.33;;
19944;SDS011;10134;50.952;6.930;2022-12-08T01:36:26;22.07;;;12.33;;
19944;SDS011;10134;50.952;6.930;2022-12-08T01:38:56;17.97;;;11.10;;
19944;SDS011;10134;50.952;6.930;2022-12-08T01:41:25;16.40;;;11.00;;
19944;SDS011;10134;50.952;6.930;2022-12-08T01:43:59;17.17;;;10.00;;
19944;SDS011;10134;50.952;6.930;2022-12-08T01:46:50;19.60;;;11.30;;
19944;SDS011;10134;50.952;6.930;2022-12-08T01:49:20;16.80;;;10.83;;
19944;SDS011;10134;50.952;6.930;2022-12-08T01:51:56;18.30;;;11.30;;
19944;SDS011;10134;50.952;6.930;2022-12-08T01:57:46;22.17;;;12.00;;
19944;SDS011;10134;50.952;6.930;2022-12-08T02:00:17;26.17;;;12.17;;
19944;SDS011;10134;50.952;6.930;2022-12-08T02:02:53;18.57;;;11.00;;
19944;SDS011;10134;50.952;6.930;2022-12-08T02:05:26;17.27;;;10.53;;
19944;SDS011;10134;50.952;6.930;2022-12-08T02:07:56;18.53;;;9.83;;
19944;SDS011;10134;50.952;6.930;2022-12-08T02:10:27;16.70;;;10.37;;
19944;SDS011;10134;50.952;6.930;2022-12-08T02:12:57;18.27;;;10.40;;
19944;SDS011;10134;50.952;6.930;2022-12-08T02:21:52;16.53;;;8.97;;
19944;SDS011;10134;50.952;6.930;2022-12-08T02:24:43;16.60;;;9.07;;
19944;SDS011;10134;50.952;6.930;2022-12-08T02:30:07;13.00;;;8.00;;
19944;SDS011;10134;50.952;6.930;2022-12-08T02:44:32;14.83;;;8.37;;
19944;SDS011;10134;50.952;6.930;2022-12-08T02:47:17;12.93;;;7.60;;
19944;SDS011;10134;50.952;6.930;2022-12-08T02:49:45;12.23;;;7.80;;
19944;SDS011;10134;50.952;6.930;2022-12-08T02:54:42;14.83;;;8.37;;
19944;SDS011;10134;50.952;6.930;2022-12-08T02:57:24;11.80;;;7.77;;
19944;SDS011;10134;50.952;6.930;2022-12-08T03:02:38;11.37;;;7.57;;
19944;SDS011;10134;50.952;6.930;2022-12-08T03:05:28;13.83;;;7.67;;
19944;SDS011;10134;50.952;6.930;2022-12-08T03:08:18;11.17;;;7.97;;
19944;SDS011;10134;50.952;6.930;2022-12-08T03:11:14;16.43;;;7.90;;
19944;SDS011;10134;50.952;6.930;2022-12-08T03:13:48;11.93;;;7.60;;
19944;SDS011;10134;50.952;6.930;2022-12-08T03:16:19;17.13;;;7.80;;
19944;SDS011;10134;50.952;6.930;2022-12-08T03:18:52;14.70;;;7.77;;
19944;SDS011;10134;50.952;6.930;2022-12-08T03:21:28;12.77;;;7.03;;
19944;SDS011;10134;50.952;6.930;2022-12-08T03:23:57;12.23;;;7.73;;
19944;SDS011;10134;50.952;6.930;2022-12-08T03:26:29;15.63;;;8.10;;
19944;SDS011;10134;50.952;6.930;2022-12-08T03:29:01;12.73;;;7.73;;
19944;SDS011;10134;50.952;6.930;2022-12-08T03:31:30;9.70;;;6.70;;
19944;SDS011;10134;50.952;6.930;2022-12-08T03:34:02;11.30;;;7.53;;
19944;SDS011;10134;50.952;6.930;2022-12-08T03:36:31;12.13;;;6.90;;
19944;SDS011;10134;50.952;6.930;2022-12-08T03:38:58;16.63;;;7.93;;
19944;SDS011;10134;50.952;6.930;2022-12-08T03:41:26;17.80;;;8.50;;
19944;SDS011;10134;50.952;6.930;2022-12-08T03:43:54;10.90;;;7.10;;
19944;SDS011;10134;50.952;6.930;2022-12-08T03:46:25;12.87;;;7.33;;
19944;SDS011;10134;50.952;6.930;2022-12-08T03:48:53;11.63;;;7.63;;
19944;SDS011;10134;50.952;6.930;2022-12-08T03:51:21;13.07;;;7.77;;
19944;SDS011;10134;50.952;6.930;2022-12-08T03:53:48;16.40;;;7.90;;
19944;SDS011;10134;50.952;6.930;2022-12-08T03:56:24;12.77;;;8.37;;
19944;SDS011;10134;50.952;6.930;2022-12-08T03:58:52;14.10;;;7.60;;
19944;SDS011;10134;50.952;6.930;2022-12-08T04:01:20;12.97;;;8.30;;
19944;SDS011;10134;50.952;6.930;2022-12-08T04:03:48;11.90;;;7.83;;
19944;SDS011;10134;50.952;6.930;2022-12-08T04:06:16;13.37;;;7.73;;
19944;SDS011;10134;50.952;6.930;2022-12-08T04:08:45;14.50;;;8.20;;
19944;SDS011;10134;50.952;6.930;2022-12-08T04:11:12;14.00;;;7.77;;
19944;SDS011;10134;50.952;6.930;2022-12-08T04:13:40;11.80;;;7.23;;
19944;SDS011;10134;50.952;6.930;2022-12-08T04:16:12;13.57;;;8.20;;
19944;SDS011;10134;50.952;6.930;2022-12-08T04:18:45;13.77;;;7.90;;
19944;SDS011;10134;50.952;6.930;2022-12-08T04:21:13;12.43;;;7.67;;
19944;SDS011;10134;50.952;6.930;2022-12-08T04:23:41;12.13;;;8.07;;
19944;SDS011;10134;50.952;6.930;2022-12-08T04:26:09;9.50;;;6.20;;
19944;SDS011;10134;50.952;6.930;2022-12-08T04:28:38;13.10;;;7.33;;
19944;SDS011;10134;50.952;6.930;2022-12-08T04:31:05;10.60;;;7.03;;
19944;SDS011;10134;50.952;6.930;2022-12-08T04:33:33;13.63;;;8.13;;
19944;SDS011;10134;50.952;6.930;2022-12-08T04:36:01;11.50;;;7.30;;
19944;SDS011;10134;50.952;6.930;2022-12-08T04:38:30;11.37;;;6.93;;
19944;SDS011;10134;50.952;6.930;2022-12-08T04:40:58;10.93;;;6.93;;
19944;SDS011;10134;50.952;6.930;2022-12-08T04:43:25;10.33;;;6.63;;
19944;SDS011;10134;50.952;6.930;2022-12-08T04:45:52;12.10;;;7.23;;
19944;SDS011;10134;50.952;6.930;2022-12-08T04:48:19;11.63;;;7.33;;
19944;SDS011;10134;50.952;6.930;2022-12-08T04:50:47;11.90;;;6.73;;
19944;SDS011;10134;50.952;6.930;2022-12-08T04:53:14;10.90;;;6.97;;
19944;SDS011;10134;50.952;6.930;2022-12-08T04:55:42;11.83;;;7.83;;
19944;SDS011;10134;50.952;6.930;2022-12-08T04:58:11;14.93;;;7.50;;
19944;SDS011;10134;50.952;6.930;2022-12-08T05:00:40;13.90;;;8.37;;
19944;SDS011;10134;50.952;6.930;2022-12-08T05:03:08;12.87;;;8.17;;
19944;SDS011;10134;50.952;6.930;2022-12-08T05:05:35;12.80;;;7.53;;
19944;SDS011;10134;50.952;6.930;2022-12-08T05:08:03;14.23;;;8.23;;
19944;SDS011;10134;50.952;6.930;2022-12-08T05:10:31;15.27;;;8.97;;
19944;SDS011;10134;50.952;6.930;2022-12-08T05:12:59;20.50;;;10.13;;
19944;SDS011;10134;50.952;6.930;2022-12-08T05:15:26;15.03;;;8.93;;
19944;SDS011;10134;50.952;6.930;2022-12-08T05:17:53;15.77;;;9.50;;
19944;SDS011;10134;50.952;6.930;2022-12-08T05:20:21;17.30;;;10.17;;
19944;SDS011;10134;50.952;6.930;2022-12-08T05:22:48;18.63;;;10.77;;
19944;SDS011;10134;50.952;6.930;2022-12-08T05:25:15;21.13;;;10.53;;
19944;SDS011;10134;50.952;6.930;2022-12-08T05:27:42;19.03;;;10.10;;
19944;SDS011;10134;50.952;6.930;2022-12-08T05:30:10;19.17;;;10.87;;
19944;SDS011;10134;50.952;6.930;2022-12-08T05:32:37;17.30;;;10.47;;
19944;SDS011;10134;50.952;6.930;2022-12-08T05:35:04;22.30;;;10.70;;
19944;SDS011;10134;50.952;6.930;2022-12-08T05:37:32;21.03;;;12.27;;
19944;SDS011;10134;50.952;6.930;2022-12-08T05:39:59;21.67;;;11.50;;
19944;SDS011;10134;50.952;6.930;2022-12-08T05:42:27;18.90;;;11.47;;
19944;SDS011;10134;50.952;6.930;2022-12-08T05:44:55;24.03;;;12.13;;
19944;SDS011;10134;50.952;6.930;2022-12-08T05:47:22;27.50;;;12.30;;
19944;SDS011;10134;50.952;6.930;2022-12-08T05:49:50;18.73;;;11.73;;
19944;SDS011;10134;50.952;6.930;2022-12-08T05:52:17;22.80;;;11.10;;
19944;SDS011;10134;50.952;6.930;2022-12-08T05:54:44;28.00;;;12.33;;
19944;SDS011;10134;50.952;6.930;2022-12-08T05:57:11;23.77;;;11.77;;
19944;SDS011;10134;50.952;6.930;2022-12-08T05:59:39;22.43;;;12.80;;
19944;SDS011;10134;50.952;6.930;2022-12-08T06:02:06;23.27;;;13.70;;
19944;SDS011;10134;50.952;6.930;2022-12-08T06:04:34;22.77;;;12.63;;
19944;SDS011;10134;50.952;6.930;2022-12-08T06:07:02;21.77;;;13.37;;
19944;SDS011;10134;50.952;6.930;2022-12-08T06:09:29;22.63;;;12.77;;
19944;SDS011;10134;50.952;6.930;2022-12-08T06:11:56;21.43;;;11.77;;
19944;SDS011;10134;50.952;6.930;2022-12-08T06:14:23;19.57;;;12.07;;
19944;SDS011;10134;50.952;6.930;2022-12-08T06:16:51;22.73;;;13.07;;
19944;SDS011;10134;50.952;6.930;2022-12-08T06:19:18;23.30;;;12.70;;
19944;SDS011;10134;50.952;6.930;2022-12-08T06:21:45;25.47;;;12.27;;
19944;SDS011;10134;50.952;6.930;2022-12-08T06:24:13;22.83;;;12.30;;
19944;SDS011;10134;50.952;6.930;2022-12-08T06:26:42;23.43;;;12.73;;
19944;SDS011;10134;50.952;6.930;2022-12-08T06:29:09;27.67;;;12.63;;
19944;SDS011;10134;50.952;6.930;2022-12-08T06:31:36;24.97;;;12.30;;
19944;SDS011;10134;50.952;6.930;2022-12-08T06:34:04;24.87;;;12.00;;
19944;SDS011;10134;50.952;6.930;2022-12-08T06:36:32;25.07;;;13.23;;
19944;SDS011;10134;50.952;6.930;2022-12-08T06:39:00;24.70;;;11.53;;
19944;SDS011;10134;50.952;6.930;2022-12-08T06:41:27;20.90;;;11.60;;
19944;SDS011;10134;50.952;6.930;2022-12-08T06:43:55;23.77;;;12.13;;
19944;SDS011;10134;50.952;6.930;2022-12-08T06:46:23;22.73;;;10.93;;
19944;SDS011;10134;50.952;6.930;2022-12-08T06:48:50;23.93;;;11.67;;
19944;SDS011;10134;50.952;6.930;2022-12-08T06:51:18;25.00;;;12.40;;
19944;SDS011;10134;50.952;6.930;2022-12-08T06:53:48;25.47;;;12.10;;
19944;SDS011;10134;50.952;6.930;2022-12-08T06:56:15;26.07;;;12.63;;
19944;SDS011;10134;50.952;6.930;2022-12-08T06:58:45;26.37;;;12.17;;
19944;SDS011;10134;50.952;6.930;2022-12-08T07:01:18;22.00;;;10.97;;
19944;SDS011;10134;50.952;6.930;2022-12-08T07:03:46;21.47;;;11.80;;
19944;SDS011;10134;50.952;6.930;2022-12-08T07:06:14;21.37;;;12.10;;
19944;SDS011;10134;50.952;6.930;2022-12-08T07:08:44;25.57;;;11.70;;
19944;SDS011;10134;50.952;6.930;2022-12-08T07:11:12;22.10;;;11.50;;
19944;SDS011;10134;50.952;6.930;2022-12-08T07:13:45;24.03;;;12.07;;
19944;SDS011;10134;50.952;6.930;2022-12-08T07:16:12;22.60;;;11.43;;
19944;SDS011;10134;50.952;6.930;2022-12-08T07:18:40;20.13;;;11.47;;
19944;SDS011;10134;50.952;6.930;2022-12-08T07:21:09;22.83;;;12.10;;
19944;SDS011;10134;50.952;6.930;2022-12-08T07:23:38;22.37;;;12.63;;
19944;SDS011;10134;50.952;6.930;2022-12-08T07:26:07;18.97;;;11.23;;
19944;SDS011;10134;50.952;6.930;2022-12-08T07:28:37;19.93;;;10.77;;
19944;SDS011;10134;50.952;6.930;2022-12-08T07:31:06;23.20;;;11.00;;
19944;SDS011;10134;50.952;6.930;2022-12-08T07:33:34;26.70;;;12.07;;
19944;SDS011;10134;50.952;6.930;2022-12-08T07:36:02;19.87;;;11.90;;
19944;SDS011;10134;50.952;6.930;2022-12-08T07:38:31;19.43;;;11.93;;
19944;SDS011;10134;50.952;6.930;2022-12-08T07:40:58;26.70;;;11.83;;
19944;SDS011;10134;50.952;6.930;2022-12-08T07:43:26;26.47;;;12.80;;
19944;SDS011;10134;50.952;6.930;2022-12-08T07:45:54;23.77;;;11.97;;
19944;SDS011;10134;50.952;6.930;2022-12-08T07:48:21;20.70;;;11.43;;
19944;SDS011;10134;50.952;6.930;2022-12-08T07:50:48;17.37;;;10.93;;
19944;SDS011;10134;50.952;6.930;2022-12-08T07:53:16;20.13;;;10.97;;
19944;SDS011;10134;50.952;6.930;2022-12-08T07:55:43;20.67;;;9.90;;
19944;SDS011;10134;50.952;6.930;2022-12-08T07:58:11;23.57;;;11.07;;
19944;SDS011;10134;50.952;6.930;2022-12-08T08:00:38;16.73;;;9.60;;
19944;SDS011;10134;50.952;6.930;2022-12-08T08:03:06;20.67;;;9.87;;
19944;SDS011;10134;50.952;6.930;2022-12-08T08:05:35;18.20;;;9.40;;
19944;SDS011;10134;50.952;6.930;2022-12-08T08:08:03;20.87;;;10.50;;
19944;SDS011;10134;50.952;6.930;2022-12-08T08:10:30;18.70;;;11.17;;
19944;SDS011;10134;50.952;6.930;2022-12-08T08:12:58;15.80;;;10.13;;
19944;SDS011;10134;50.952;6.930;2022-12-08T08:15:26;19.47;;;11.33;;
19944;SDS011;10134;50.952;6.930;2022-12-08T08:17:53;18.40;;;11.43;;
19944;SDS011;10134;50.952;6.930;2022-12-08T08:20:21;21.23;;;10.57;;
19944;SDS011;10134;50.952;6.930;2022-12-08T08:22:49;17.63;;;10.57;;
19944;SDS011;10134;50.952;6.930;2022-12-08T08:25:17;19.20;;;11.23;;
19944;SDS011;10134;50.952;6.930;2022-12-08T08:27:46;18.67;;;11.70;;
19944;SDS011;10134;50.952;6.930;2022-12-08T08:30:14;19.93;;;11.93;;
19944;SDS011;10134;50.952;6.930;2022-12-08T08:32:46;20.30;;;11.03;;
19944;SDS011;10134;50.952;6.930;2022-12-08T08:35:14;21.50;;;10.37;;
19944;SDS011;10134;50.952;6.930;2022-12-08T08:37:42;19.07;;;10.40;;
19944;SDS011;10134;50.952;6.930;2022-12-08T08:40:14;20.13;;;9.37;;
19944;SDS011;10134;50.952;6.930;2022-12-08T08:42:43;17.73;;;10.03;;
19944;SDS011;10134;50.952;6.930;2022-12-08T08:45:10;15.03;;;9.80;;
19944;SDS011;10134;50.952;6.930;2022-12-08T08:47:37;20.73;;;9.67;;
19944;SDS011;10134;50.952;6.930;2022-12-08T08:50:05;15.73;;;9.73;;
19944;SDS011;10134;50.952;6.930;2022-12-08T08:52:33;20.83;;;10.00;;
19944;SDS011;10134;50.952;6.930;2022-12-08T08:55:01;16.33;;;9.77;;
19944;SDS011;10134;50.952;6.930;2022-12-08T08:57:29;12.37;;;7.83;;
19944;SDS011;10134;50.952;6.930;2022-12-08T08:59:56;21.63;;;9.63;;
19944;SDS011;10134;50.952;6.930;2022-12-08T09:02:23;17.60;;;9.43;;
19944;SDS011;10134;50.952;6.930;2022-12-08T09:04:51;14.70;;;9.17;;
19944;SDS011;10134;50.952;6.930;2022-12-08T09:07:18;19.83;;;10.77;;
19944;SDS011;10134;50.952;6.930;2022-12-08T09:09:49;18.03;;;9.43;;
19944;SDS011;10134;50.952;6.930;2022-12-08T09:12:27;17.33;;;10.17;;
19944;SDS011;10134;50.952;6.930;2022-12-08T09:14:54;13.87;;;8.67;;
19944;SDS011;10134;50.952;6.930;2022-12-08T09:17:22;12.40;;;8.80;;
19944;SDS011;10134;50.952;6.930;2022-12-08T09:19:49;14.93;;;8.03;;
19944;SDS011;10134;50.952;6.930;2022-12-08T09:22:17;17.67;;;8.20;;
19944;SDS011;10134;50.952;6.930;2022-12-08T09:24:44;13.83;;;7.53;;
19944;SDS011;10134;50.952;6.930;2022-12-08T09:27:11;11.33;;;6.77;;
19944;SDS011;10134;50.952;6.930;2022-12-08T09:29:38;11.67;;;7.67;;
19944;SDS011;10134;50.952;6.930;2022-12-08T09:32:06;11.30;;;6.27;;
19944;SDS011;10134;50.952;6.930;2022-12-08T09:34:33;13.23;;;6.57;;
19944;SDS011;10134;50.952;6.930;2022-12-08T09:37:00;10.97;;;6.37;;
19944;SDS011;10134;50.952;6.930;2022-12-08T09:39:28;14.60;;;6.77;;
19944;SDS011;10134;50.952;6.930;2022-12-08T09:41:57;11.20;;;6.63;;
19944;SDS011;10134;50.952;6.930;2022-12-08T09:46:57;11.47;;;6.53;;
19944;SDS011;10134;50.952;6.930;2022-12-08T09:49:38;10.17;;;6.30;;
19944;SDS011;10134;50.952;6.930;2022-12-08T09:52:14;10.13;;;6.60;;
19944;SDS011;10134;50.952;6.930;2022-12-08T09:54:52;10.23;;;6.40;;
19944;SDS011;10134;50.952;6.930;2022-12-08T09:57:22;12.80;;;6.07;;
19944;SDS011;10134;50.952;6.930;2022-12-08T09:59:52;9.60;;;5.70;;
19944;SDS011;10134;50.952;6.930;2022-12-08T10:02:24;10.50;;;5.77;;
19944;SDS011;10134;50.952;6.930;2022-12-08T10:04:55;6.20;;;4.20;;
19944;SDS011;10134;50.952;6.930;2022-12-08T10:10:12;8.20;;;5.00;;
19944;SDS011;10134;50.952;6.930;2022-12-08T10:12:54;4.57;;;3.17;;
19944;SDS011;10134;50.952;6.930;2022-12-08T10:18:34;5.23;;;3.57;;
19944;SDS011;10134;50.952;6.930;2022-12-08T10:21:16;6.47;;;4.43;;
19944;SDS011;10134;50.952;6.930;2022-12-08T10:23:54;8.07;;;4.80;;
19944;SDS011;10134;50.952;6.930;2022-12-08T10:26:27;7.17;;;4.10;;
19944;SDS011;10134;50.952;6.930;2022-12-08T10:29:00;8.03;;;4.57;;
19944;SDS011;10134;50.952;6.930;2022-12-08T10:31:29;7.67;;;4.43;;
19944;SDS011;10134;50.952;6.930;2022-12-08T10:34:00;8.60;;;4.63;;
19944;SDS011;10134;50.952;6.930;2022-12-08T10:36:43;7.77;;;5.43;;
19944;SDS011;10134;50.952;6.930;2022-12-08T10:39:35;8.97;;;5.37;;
19944;SDS011;10134;50.952;6.930;2022-12-08T10:42:10;10.80;;;5.50;;
19944;SDS011;10134;50.952;6.930;2022-12-08T10:44:51;8.77;;;5.70;;
19944;SDS011;10134;50.952;6.930;2022-12-08T10:47:28;10.73;;;7.17;;
19944;SDS011;10134;50.952;6.930;2022-12-08T10:50:05;12.57;;;7.33;;
19944;SDS011;10134;50.952;6.930;2022-12-08T10:52:37;11.77;;;6.90;;
19944;SDS011;10134;50.952;6.930;2022-12-08T10:55:17;13.73;;;7.07;;
19944;SDS011;10134;50.952;6.930;2022-12-08T10:57:46;11.93;;;6.70;;
19944;SDS011;10134;50.952;6.930;2022-12-08T11:00:20;8.53;;;5.97;;
19944;SDS011;10134;50.952;6.930;2022-12-08T11:03:00;10.97;;;6.47;;
19944;SDS011;10134;50.952;6.930;2022-12-08T11:08:46;15.47;;;8.63;;
19944;SDS011;10134;50.952;6.930;2022-12-08T11:11:19;11.43;;;6.63;;
19944;SDS011;10134;50.952;6.930;2022-12-08T11:13:55;9.33;;;5.80;;
19944;SDS011;10134;50.952;6.930;2022-12-08T11:16:25;21.50;;;9.67;;
19944;SDS011;10134;50.952;6.930;2022-12-08T11:18:56;13.43;;;6.40;;
19944;SDS011;10134;50.952;6.930;2022-12-08T11:21:33;10.63;;;5.77;;
19944;SDS011;10134;50.952;6.930;2022-12-08T11:26:59;9.90;;;5.40;;
19944;SDS011;10134;50.952;6.930;2022-12-08T11:29:30;8.90;;;5.10;;
19944;SDS011;10134;50.952;6.930;2022-12-08T11:32:03;10.13;;;5.70;;
19944;SDS011;10134;50.952;6.930;2022-12-08T11:37:16;7.10;;;4.50;;
19944;SDS011;10134;50.952;6.930;2022-12-08T11:39:50;8.73;;;4.53;;
19944;SDS011;10134;50.952;6.930;2022-12-08T11:42:22;8.40;;;3.83;;
19944;SDS011;10134;50.952;6.930;2022-12-08T11:45:01;9.60;;;3.53;;
19944;SDS011;10134;50.952;6.930;2022-12-08T11:50:50;6.00;;;3.00;;
19944;SDS011;10134;50.952;6.930;2022-12-08T11:53:21;10.20;;;3.50;;
19944;SDS011;10134;50.952;6.930;2022-12-08T11:56:09;5.53;;;2.93;;
19944;SDS011;10134;50.952;6.930;2022-12-08T11:58:46;4.10;;;2.73;;
19944;SDS011;10134;50.952;6.930;2022-12-08T12:01:26;7.13;;;3.70;;
19944;SDS011;10134;50.952;6.930;2022-12-08T12:10:05;9.57;;;4.90;;
19944;SDS011;10134;50.952;6.930;2022-12-08T12:18:17;17.77;;;6.73;;
19944;SDS011;10134;50.952;6.930;2022-12-08T12:23:35;17.07;;;6.93;;
19944;SDS011;10134;50.952;6.930;2022-12-08T12:26:22;11.20;;;7.17;;
19944;SDS011;10134;50.952;6.930;2022-12-08T12:28:54;15.60;;;7.27;;
19944;SDS011;10134;50.952;6.930;2022-12-08T12:31:27;15.03;;;7.63;;
19944;SDS011;10134;50.952;6.930;2022-12-08T12:34:33;9.90;;;6.07;;
19944;SDS011;10134;50.952;6.930;2022-12-08T12:39:26;12.73;;;6.70;;
19944;SDS011;10134;50.952;6.930;2022-12-08T12:41:57;17.53;;;8.13;;
19944;SDS011;10134;50.952;6.930;2022-12-08T12:47:00;11.63;;;6.77;;
19944;SDS011;10134;50.952;6.930;2022-12-08T12:57:55;17.80;;;7.90;;
19944;SDS011;10134;50.952;6.930;2022-12-08T13:00:26;11.50;;;6.93;;
19944;SDS011;10134;50.952;6.930;2022-12-08T13:02:55;15.73;;;6.80;;
19944;SDS011;10134;50.952;6.930;2022-12-08T13:05:26;11.57;;;7.33;;
19944;SDS011;10134;50.952;6.930;2022-12-08T13:07:57;13.30;;;6.13;;
19944;SDS011;10134;50.952;6.930;2022-12-08T13:10:34;10.07;;;6.27;;
19944;SDS011;10134;50.952;6.930;2022-12-08T13:16:23;10.30;;;5.73;;
19944;SDS011;10134;50.952;6.930;2022-12-08T13:18:56;10.43;;;6.23;;
19944;SDS011;10134;50.952;6.930;2022-12-08T13:21:30;13.20;;;5.43;;
19944;SDS011;10134;50.952;6.930;2022-12-08T13:26:44;9.37;;;5.07;;
19944;SDS011;10134;50.952;6.930;2022-12-08T13:29:24;8.93;;;5.13;;
19944;SDS011;10134;50.952;6.930;2022-12-08T13:31:52;13.50;;;6.00;;
19944;SDS011;10134;50.952;6.930;2022-12-08T13:39:41;9.23;;;5.63;;
19944;SDS011;10134;50.952;6.930;2022-12-08T13:42:20;11.40;;;5.80;;
19944;SDS011;10134;50.952;6.930;2022-12-08T13:45:04;10.37;;;5.37;;
19944;SDS011;10134;50.952;6.930;2022-12-08T13:48:03;11.60;;;5.63;;
19944;SDS011;10134;50.952;6.930;2022-12-08T13:54:57;13.93;;;5.73;;
19944;SDS011;10134;50.952;6.930;2022-12-08T13:57:32;12.87;;;5.43;;
19944;SDS011;10134;50.952;6.930;2022-12-08T14:00:04;14.60;;;6.03;;
19944;SDS011;10134;50.952;6.930;2022-12-08T14:02:40;10.57;;;5.00;;
19944;SDS011;10134;50.952;6.930;2022-12-08T14:05:18;10.80;;;6.03;;
19944;SDS011;10134;50.952;6.930;2022-12-08T14:08:17;16.30;;;4.43;;
19944;SDS011;10134;50.952;6.930;2022-12-08T14:11:06;13.17;;;4.93;;
19944;SDS011;10134;50.952;6.930;2022-12-08T14:13:35;9.77;;;4.23;;
19944;SDS011;10134;50.952;6.930;2022-12-08T14:16:03;11.10;;;4.80;;
19944;SDS011;10134;50.952;6.930;2022-12-08T14:18:32;11.93;;;5.50;;
19944;SDS011;10134;50.952;6.930;2022-12-08T14:21:04;10.03;;;4.73;;
19944;SDS011;10134;50.952;6.930;2022-12-08T14:23:48;9.30;;;5.57;;
19944;SDS011;10134;50.952;6.930;2022-12-08T14:26:15;10.67;;;5.90;;
19944;SDS011;10134;50.952;6.930;2022-12-08T14:28:43;13.80;;;7.00;;
19944;SDS011;10134;50.952;6.930;2022-12-08T14:31:11;9.80;;;5.07;;
19944;SDS011;10134;50.952;6.930;2022-12-08T14:33:40;8.77;;;5.03;;
19944;SDS011;10134;50.952;6.930;2022-12-08T14:36:08;10.40;;;5.27;;
19944;SDS011;10134;50.952;6.930;2022-12-08T14:38:41;9.10;;;4.50;;
19944;SDS011;10134;50.952;6.930;2022-12-08T14:41:09;9.97;;;5.03;;
19944;SDS011;10134;50.952;6.930;2022-12-08T14:43:37;9.13;;;5.10;;
19944;SDS011;10134;50.952;6.930;2022-12-08T14:46:41;7.47;;;4.40;;
19944;SDS011;10134;50.952;6.930;2022-12-08T14:49:00;11.97;;;4.63;;
19944;SDS011;10134;50.952;6.930;2022-12-08T14:51:29;10.93;;;5.10;;
19944;SDS011;10134;50.952;6.930;2022-12-08T14:54:04;11.23;;;4.63;;
19944;SDS011;10134;50.952;6.930;2022-12-08T14:59:13;8.40;;;4.40;;
19944;SDS011;10134;50.952;6.930;2022-12-08T15:01:45;12.63;;;4.83;;
19944;SDS011;10134;50.952;6.930;2022-12-08T15:04:18;8.83;;;4.93;;
19944;SDS011;10134;50.952;6.930;2022-12-08T15:06:51;10.53;;;4.60;;
19944;SDS011;10134;50.952;6.930;2022-12-08T15:09:29;8.83;;;4.57;;
19944;SDS011;10134;50.952;6.930;2022-12-08T15:12:01;6.63;;;4.07;;
19944;SDS011;10134;50.952;6.930;2022-12-08T15:14:34;10.87;;;4.97;;
19944;SDS011;10134;50.952;6.930;2022-12-08T15:17:22;8.93;;;4.23;;
19944;SDS011;10134;50.952;6.930;2022-12-08T15:19:56;9.07;;;4.87;;
19944;SDS011;10134;50.952;6.930;2022-12-08T15:22:25;7.80;;;4.97;;
19944;SDS011;10134;50.952;6.930;2022-12-08T15:24:55;9.43;;;5.77;;
19944;SDS011;10134;50.952;6.930;2022-12-08T15:27:23;11.53;;;5.80;;
19944;SDS011;10134;50.952;6.930;2022-12-08T15:29:51;15.27;;;5.27;;
19944;SDS011;10134;50.952;6.930;2022-12-08T15:32:20;9.50;;;4.67;;
19944;SDS011;10134;50.952;6.930;2022-12-08T15:34:48;10.93;;;4.17;;
19944;SDS011;10134;50.952;6.930;2022-12-08T15:37:23;11.77;;;4.97;;
19944;SDS011;10134;50.952;6.930;2022-12-08T15:39:52;9.97;;;4.57;;
19944;SDS011;10134;50.952;6.930;2022-12-08T15:42:19;18.60;;;6.40;;
19944;SDS011;10134;50.952;6.930;2022-12-08T15:44:47;17.23;;;6.07;;
19944;SDS011;10134;50.952;6.930;2022-12-08T15:47:15;10.77;;;5.47;;
19944;SDS011;10134;50.952;6.930;2022-12-08T15:49:48;12.07;;;5.80;;
19944;SDS011;10134;50.952;6.930;2022-12-08T15:52:19;14.70;;;7.13;;
19944;SDS011;10134;50.952;6.930;2022-12-08T15:54:48;23.47;;;9.43;;
19944;SDS011;10134;50.952;6.930;2022-12-08T15:57:21;9.17;;;5.50;;
19944;SDS011;10134;50.952;6.930;2022-12-08T16:00:23;8.27;;;4.73;;
19944;SDS011;10134;50.952;6.930;2022-12-08T16:03:23;11.97;;;6.13;;
19944;SDS011;10134;50.952;6.930;2022-12-08T16:06:17;11.33;;;5.50;;
19944;SDS011;10134;50.952;6.930;2022-12-08T16:09:10;14.50;;;6.10;;
19944;SDS011;10134;50.952;6.930;2022-12-08T16:11:49;11.00;;;5.10;;
19944;SDS011;10134;50.952;6.930;2022-12-08T16:14:36;12.20;;;4.37;;
19944;SDS011;10134;50.952;6.930;2022-12-08T16:17:25;13.60;;;5.73;;
19944;SDS011;10134;50.952;6.930;2022-12-08T16:19:53;11.30;;;4.87;;
19944;SDS011;10134;50.952;6.930;2022-12-08T16:22:22;9.27;;;5.10;;
19944;SDS011;10134;50.952;6.930;2022-12-08T16:25:12;9.17;;;4.80;;
19944;SDS011;10134;50.952;6.930;2022-12-08T16:27:45;5.13;;;4.37;;
19944;SDS011;10134;50.952;6.930;2022-12-08T16:30:34;14.97;;;4.93;;
19944;SDS011;10134;50.952;6.930;2022-12-08T16:33:02;7.93;;;4.67;;